sensor_id;sensor_type;location;lat;lon;timestamp;temperature;humidity
4107;DHT22;21906;50.812;7.132;2023-07-29T00:02:10;21.00;81.20
4107;DHT22;21906;50.812;7.132;2023-07-29T00:04:36;21.10;81.40
4107;DHT22;21906;50.812;7.132;2023-07-29T00:07:01;21.00;81.60
4107;DHT22;21906;50.812;7.132;2023-07-29T00:09:27;21.10;81.60
4107;DHT22;21906;50.812;7.132;2023-07-29T00:11:53;21.00;81.60
4107;DHT22;21906;50.812;7.132;2023-07-29T00:14:18;21.00;81.70
4107;DHT22;21906;50.812;7.132;2023-07-29T00:16:44;21.00;81.70
4107;DHT22;21906;50.812;7.132;2023-07-29T00:19:10;21.00;81.80
4107;DHT22;21906;50.812;7.132;2023-07-29T00:21:35;21.00;81.80
4107;DHT22;21906;50.812;7.132;2023-07-29T00:24:01;21.00;81.70
4107;DHT22;21906;50.812;7.132;2023-07-29T00:26:27;21.00;81.70
4107;DHT22;21906;50.812;7.132;2023-07-29T00:28:55;21.00;81.80
4107;DHT22;21906;50.812;7.132;2023-07-29T00:31:21;20.90;81.90
4107;DHT22;21906;50.812;7.132;2023-07-29T00:33:47;20.90;82.00
4107;DHT22;21906;50.812;7.132;2023-07-29T00:36:12;20.90;82.00
4107;DHT22;21906;50.812;7.132;2023-07-29T00:38:38;20.90;82.00
4107;DHT22;21906;50.812;7.132;2023-07-29T00:41:03;21.00;82.00
4107;DHT22;21906;50.812;7.132;2023-07-29T00:43:30;20.90;81.90
4107;DHT22;21906;50.812;7.132;2023-07-29T00:45:56;21.00;81.90
4107;DHT22;21906;50.812;7.132;2023-07-29T00:48:23;20.90;82.00
4107;DHT22;21906;50.812;7.132;2023-07-29T00:50:49;20.90;82.00
4107;DHT22;21906;50.812;7.132;2023-07-29T00:53:15;20.90;81.90
4107;DHT22;21906;50.812;7.132;2023-07-29T00:55:42;20.90;82.00
4107;DHT22;21906;50.812;7.132;2023-07-29T00:58:08;21.00;82.10
4107;DHT22;21906;50.812;7.132;2023-07-29T01:00:33;21.00;81.90
4107;DHT22;21906;50.812;7.132;2023-07-29T01:02:59;21.00;81.90
4107;DHT22;21906;50.812;7.132;2023-07-29T01:05:30;21.00;81.80
4107;DHT22;21906;50.812;7.132;2023-07-29T01:08:21;20.90;81.90
4107;DHT22;21906;50.812;7.132;2023-07-29T01:16:50;20.90;81.80
4107;DHT22;21906;50.812;7.132;2023-07-29T01:19:59;20.90;81.90
4107;DHT22;21906;50.812;7.132;2023-07-29T01:22:27;20.90;81.90
4107;DHT22;21906;50.812;7.132;2023-07-29T01:24:53;21.00;82.10
4107;DHT22;21906;50.812;7.132;2023-07-29T01:27:18;20.90;82.10
4107;DHT22;21906;50.812;7.132;2023-07-29T01:29:44;20.90;82.10
4107;DHT22;21906;50.812;7.132;2023-07-29T01:32:14;21.00;82.00
4107;DHT22;21906;50.812;7.132;2023-07-29T01:34:51;20.90;82.00
4107;DHT22;21906;50.812;7.132;2023-07-29T01:37:23;20.90;82.10
4107;DHT22;21906;50.812;7.132;2023-07-29T01:39:54;20.90;82.10
4107;DHT22;21906;50.812;7.132;2023-07-29T01:42:22;20.90;82.10
4107;DHT22;21906;50.812;7.132;2023-07-29T01:44:48;20.90;82.20
4107;DHT22;21906;50.812;7.132;2023-07-29T01:47:13;20.90;82.20
4107;DHT22;21906;50.812;7.132;2023-07-29T01:49:39;20.90;82.20
4107;DHT22;21906;50.812;7.132;2023-07-29T01:52:05;20.90;82.00
4107;DHT22;21906;50.812;7.132;2023-07-29T01:54:31;20.90;82.10
4107;DHT22;21906;50.812;7.132;2023-07-29T01:56:56;20.90;82.10
4107;DHT22;21906;50.812;7.132;2023-07-29T01:59:22;20.90;82.20
4107;DHT22;21906;50.812;7.132;2023-07-29T02:01:47;20.90;82.20
4107;DHT22;21906;50.812;7.132;2023-07-29T02:04:14;20.90;82.30
4107;DHT22;21906;50.812;7.132;2023-07-29T02:06:39;20.90;82.30
4107;DHT22;21906;50.812;7.132;2023-07-29T02:09:05;20.90;82.30
4107;DHT22;21906;50.812;7.132;2023-07-29T02:11:31;20.90;82.30
4107;DHT22;21906;50.812;7.132;2023-07-29T02:13:57;20.90;82.40
4107;DHT22;21906;50.812;7.132;2023-07-29T02:16:23;20.90;82.40
4107;DHT22;21906;50.812;7.132;2023-07-29T02:18:49;20.90;82.60
4107;DHT22;21906;50.812;7.132;2023-07-29T02:21:17;20.90;82.60
4107;DHT22;21906;50.812;7.132;2023-07-29T02:23:43;20.90;82.70
4107;DHT22;21906;50.812;7.132;2023-07-29T02:26:09;21.00;82.90
4107;DHT22;21906;50.812;7.132;2023-07-29T02:28:34;20.90;82.80
4107;DHT22;21906;50.812;7.132;2023-07-29T02:31:22;21.00;83.20
4107;DHT22;21906;50.812;7.132;2023-07-29T02:33:47;20.90;83.40
4107;DHT22;21906;50.812;7.132;2023-07-29T02:36:13;20.90;83.60
4107;DHT22;21906;50.812;7.132;2023-07-29T02:38:40;20.90;84.10
4107;DHT22;21906;50.812;7.132;2023-07-29T02:41:06;20.70;84.80
4107;DHT22;21906;50.812;7.132;2023-07-29T02:43:32;20.60;85.10
4107;DHT22;21906;50.812;7.132;2023-07-29T02:45:57;20.50;85.50
4107;DHT22;21906;50.812;7.132;2023-07-29T02:48:24;20.60;85.40
4107;DHT22;21906;50.812;7.132;2023-07-29T02:50:50;20.60;85.30
4107;DHT22;21906;50.812;7.132;2023-07-29T02:53:15;20.50;85.40
4107;DHT22;21906;50.812;7.132;2023-07-29T02:55:41;20.50;85.50
4107;DHT22;21906;50.812;7.132;2023-07-29T02:58:07;20.50;85.60
4107;DHT22;21906;50.812;7.132;2023-07-29T03:00:32;20.50;85.60
4107;DHT22;21906;50.812;7.132;2023-07-29T03:02:58;20.50;85.60
4107;DHT22;21906;50.812;7.132;2023-07-29T03:05:24;20.50;85.70
4107;DHT22;21906;50.812;7.132;2023-07-29T03:07:50;20.40;85.80
4107;DHT22;21906;50.812;7.132;2023-07-29T03:10:15;20.40;85.80
4107;DHT22;21906;50.812;7.132;2023-07-29T03:12:41;20.50;85.70
4107;DHT22;21906;50.812;7.132;2023-07-29T03:15:07;20.50;85.30
4107;DHT22;21906;50.812;7.132;2023-07-29T03:17:33;20.50;85.20
4107;DHT22;21906;50.812;7.132;2023-07-29T03:19:58;20.50;84.80
4107;DHT22;21906;50.812;7.132;2023-07-29T03:22:24;20.50;84.50
4107;DHT22;21906;50.812;7.132;2023-07-29T03:24:50;20.50;84.50
4107;DHT22;21906;50.812;7.132;2023-07-29T03:27:15;20.50;84.60
4107;DHT22;21906;50.812;7.132;2023-07-29T03:29:41;20.50;84.60
4107;DHT22;21906;50.812;7.132;2023-07-29T03:32:07;20.50;84.30
4107;DHT22;21906;50.812;7.132;2023-07-29T03:34:33;20.50;83.90
4107;DHT22;21906;50.812;7.132;2023-07-29T03:37:00;20.50;83.60
4107;DHT22;21906;50.812;7.132;2023-07-29T03:39:26;20.50;83.40
4107;DHT22;21906;50.812;7.132;2023-07-29T03:41:52;20.50;83.40
4107;DHT22;21906;50.812;7.132;2023-07-29T03:44:17;20.50;83.30
4107;DHT22;21906;50.812;7.132;2023-07-29T03:46:44;20.50;83.10
4107;DHT22;21906;50.812;7.132;2023-07-29T03:49:10;20.40;82.80
4107;DHT22;21906;50.812;7.132;2023-07-29T03:51:36;20.40;83.10
4107;DHT22;21906;50.812;7.132;2023-07-29T03:54:01;20.30;83.40
4107;DHT22;21906;50.812;7.132;2023-07-29T03:56:27;20.40;83.40
4107;DHT22;21906;50.812;7.132;2023-07-29T03:58:53;20.30;83.30
4107;DHT22;21906;50.812;7.132;2023-07-29T04:01:19;20.30;83.30
4107;DHT22;21906;50.812;7.132;2023-07-29T04:03:45;20.30;83.40
4107;DHT22;21906;50.812;7.132;2023-07-29T04:06:14;20.30;83.40
4107;DHT22;21906;50.812;7.132;2023-07-29T04:08:40;20.30;83.60
4107;DHT22;21906;50.812;7.132;2023-07-29T04:11:07;20.10;84.10
4107;DHT22;21906;50.812;7.132;2023-07-29T04:13:32;20.10;84.20
4107;DHT22;21906;50.812;7.132;2023-07-29T04:15:58;20.10;84.40
4107;DHT22;21906;50.812;7.132;2023-07-29T04:18:23;20.10;84.60
4107;DHT22;21906;50.812;7.132;2023-07-29T04:20:49;20.20;84.50
4107;DHT22;21906;50.812;7.132;2023-07-29T04:23:15;20.10;84.50
4107;DHT22;21906;50.812;7.132;2023-07-29T04:25:40;20.10;84.50
4107;DHT22;21906;50.812;7.132;2023-07-29T04:28:06;20.10;84.50
4107;DHT22;21906;50.812;7.132;2023-07-29T04:30:32;20.10;84.50
4107;DHT22;21906;50.812;7.132;2023-07-29T04:32:57;20.10;84.50
4107;DHT22;21906;50.812;7.132;2023-07-29T04:35:23;20.10;84.50
4107;DHT22;21906;50.812;7.132;2023-07-29T04:37:49;20.10;84.60
4107;DHT22;21906;50.812;7.132;2023-07-29T04:40:14;20.00;84.60
4107;DHT22;21906;50.812;7.132;2023-07-29T04:42:40;20.00;84.60
4107;DHT22;21906;50.812;7.132;2023-07-29T04:45:06;20.00;84.60
4107;DHT22;21906;50.812;7.132;2023-07-29T04:47:32;20.10;84.60
4107;DHT22;21906;50.812;7.132;2023-07-29T04:49:57;20.00;84.50
4107;DHT22;21906;50.812;7.132;2023-07-29T04:52:23;20.00;84.50
4107;DHT22;21906;50.812;7.132;2023-07-29T04:54:49;20.00;84.50
4107;DHT22;21906;50.812;7.132;2023-07-29T04:57:14;20.00;84.60
4107;DHT22;21906;50.812;7.132;2023-07-29T04:59:40;20.00;84.80
4107;DHT22;21906;50.812;7.132;2023-07-29T05:02:06;20.00;84.90
4107;DHT22;21906;50.812;7.132;2023-07-29T05:04:31;19.90;85.00
4107;DHT22;21906;50.812;7.132;2023-07-29T05:06:57;19.90;85.00
4107;DHT22;21906;50.812;7.132;2023-07-29T05:09:23;20.00;85.00
4107;DHT22;21906;50.812;7.132;2023-07-29T05:11:49;20.00;85.10
4107;DHT22;21906;50.812;7.132;2023-07-29T05:14:16;20.00;85.10
4107;DHT22;21906;50.812;7.132;2023-07-29T05:16:42;20.00;85.00
4107;DHT22;21906;50.812;7.132;2023-07-29T05:19:08;20.00;85.20
4107;DHT22;21906;50.812;7.132;2023-07-29T05:21:34;20.10;85.00
4107;DHT22;21906;50.812;7.132;2023-07-29T05:23:59;20.10;84.70
4107;DHT22;21906;50.812;7.132;2023-07-29T05:26:25;20.10;84.70
4107;DHT22;21906;50.812;7.132;2023-07-29T05:28:51;20.10;84.70
4107;DHT22;21906;50.812;7.132;2023-07-29T05:31:17;20.20;84.80
4107;DHT22;21906;50.812;7.132;2023-07-29T05:33:43;20.10;85.00
4107;DHT22;21906;50.812;7.132;2023-07-29T05:36:09;20.20;85.00
4107;DHT22;21906;50.812;7.132;2023-07-29T05:38:34;20.20;85.10
4107;DHT22;21906;50.812;7.132;2023-07-29T05:41:00;20.30;85.20
4107;DHT22;21906;50.812;7.132;2023-07-29T05:43:26;20.30;85.20
4107;DHT22;21906;50.812;7.132;2023-07-29T05:45:52;20.30;85.20
4107;DHT22;21906;50.812;7.132;2023-07-29T05:48:19;20.30;85.00
4107;DHT22;21906;50.812;7.132;2023-07-29T05:50:45;20.30;84.80
4107;DHT22;21906;50.812;7.132;2023-07-29T05:53:11;20.40;84.60
4107;DHT22;21906;50.812;7.132;2023-07-29T05:55:36;20.40;84.40
4107;DHT22;21906;50.812;7.132;2023-07-29T05:58:02;20.40;84.40
4107;DHT22;21906;50.812;7.132;2023-07-29T06:00:28;20.40;84.60
4107;DHT22;21906;50.812;7.132;2023-07-29T06:02:53;20.40;84.80
4107;DHT22;21906;50.812;7.132;2023-07-29T06:05:19;20.40;85.10
4107;DHT22;21906;50.812;7.132;2023-07-29T06:07:44;20.40;85.50
4107;DHT22;21906;50.812;7.132;2023-07-29T06:10:12;20.40;85.70
4107;DHT22;21906;50.812;7.132;2023-07-29T06:12:38;20.40;85.80
4107;DHT22;21906;50.812;7.132;2023-07-29T06:15:05;20.40;85.30
4107;DHT22;21906;50.812;7.132;2023-07-29T06:17:31;20.40;85.30
4107;DHT22;21906;50.812;7.132;2023-07-29T06:19:56;20.40;85.40
4107;DHT22;21906;50.812;7.132;2023-07-29T06:22:22;20.40;85.40
4107;DHT22;21906;50.812;7.132;2023-07-29T06:24:47;20.40;85.20
4107;DHT22;21906;50.812;7.132;2023-07-29T06:27:13;20.40;84.40
4107;DHT22;21906;50.812;7.132;2023-07-29T06:29:39;20.40;84.20
4107;DHT22;21906;50.812;7.132;2023-07-29T06:32:05;20.30;83.90
4107;DHT22;21906;50.812;7.132;2023-07-29T06:34:30;20.30;84.10
4107;DHT22;21906;50.812;7.132;2023-07-29T06:36:56;20.30;84.20
4107;DHT22;21906;50.812;7.132;2023-07-29T06:39:22;20.30;84.20
4107;DHT22;21906;50.812;7.132;2023-07-29T06:41:48;20.30;83.60
4107;DHT22;21906;50.812;7.132;2023-07-29T06:44:13;20.30;83.50
4107;DHT22;21906;50.812;7.132;2023-07-29T06:46:39;20.30;83.60
4107;DHT22;21906;50.812;7.132;2023-07-29T06:49:05;20.10;83.20
4107;DHT22;21906;50.812;7.132;2023-07-29T06:51:31;20.20;83.30
4107;DHT22;21906;50.812;7.132;2023-07-29T06:54:00;20.20;83.50
4107;DHT22;21906;50.812;7.132;2023-07-29T06:56:26;20.00;83.70
4107;DHT22;21906;50.812;7.132;2023-07-29T06:58:52;20.10;83.60
4107;DHT22;21906;50.812;7.132;2023-07-29T07:01:18;20.10;83.70
4107;DHT22;21906;50.812;7.132;2023-07-29T07:03:43;20.10;84.10
4107;DHT22;21906;50.812;7.132;2023-07-29T07:06:09;20.20;84.00
4107;DHT22;21906;50.812;7.132;2023-07-29T07:08:35;20.40;84.10
4107;DHT22;21906;50.812;7.132;2023-07-29T07:11:01;20.40;84.50
4107;DHT22;21906;50.812;7.132;2023-07-29T07:13:26;20.40;84.00
4107;DHT22;21906;50.812;7.132;2023-07-29T07:15:56;20.40;83.00
4107;DHT22;21906;50.812;7.132;2023-07-29T07:18:21;20.50;82.60
4107;DHT22;21906;50.812;7.132;2023-07-29T07:20:50;20.50;82.80
4107;DHT22;21906;50.812;7.132;2023-07-29T07:23:16;20.60;81.80
4107;DHT22;21906;50.812;7.132;2023-07-29T07:25:42;20.50;82.00
4107;DHT22;21906;50.812;7.132;2023-07-29T07:28:09;20.50;82.10
4107;DHT22;21906;50.812;7.132;2023-07-29T07:30:35;20.40;82.30
4107;DHT22;21906;50.812;7.132;2023-07-29T07:33:01;20.40;81.80
4107;DHT22;21906;50.812;7.132;2023-07-29T07:35:26;20.50;81.30
4107;DHT22;21906;50.812;7.132;2023-07-29T07:37:52;20.50;81.20
4107;DHT22;21906;50.812;7.132;2023-07-29T07:40:18;20.50;81.40
4107;DHT22;21906;50.812;7.132;2023-07-29T07:42:43;20.60;81.10
4107;DHT22;21906;50.812;7.132;2023-07-29T07:45:09;20.60;80.80
4107;DHT22;21906;50.812;7.132;2023-07-29T07:47:35;20.60;79.40
4107;DHT22;21906;50.812;7.132;2023-07-29T07:50:00;20.60;80.20
4107;DHT22;21906;50.812;7.132;2023-07-29T07:52:26;20.70;79.80
4107;DHT22;21906;50.812;7.132;2023-07-29T07:54:54;20.60;79.70
4107;DHT22;21906;50.812;7.132;2023-07-29T07:57:23;20.80;79.90
4107;DHT22;21906;50.812;7.132;2023-07-29T07:59:48;20.80;79.20
4107;DHT22;21906;50.812;7.132;2023-07-29T08:02:14;20.80;79.70
4107;DHT22;21906;50.812;7.132;2023-07-29T08:04:40;20.80;78.00
4107;DHT22;21906;50.812;7.132;2023-07-29T08:07:05;20.90;78.40
4107;DHT22;21906;50.812;7.132;2023-07-29T08:09:31;20.90;77.30
4107;DHT22;21906;50.812;7.132;2023-07-29T08:11:57;21.00;77.80
4107;DHT22;21906;50.812;7.132;2023-07-29T08:14:22;21.10;77.60
4107;DHT22;21906;50.812;7.132;2023-07-29T08:16:48;21.20;76.00
4107;DHT22;21906;50.812;7.132;2023-07-29T08:19:14;21.40;74.80
4107;DHT22;21906;50.812;7.132;2023-07-29T08:21:39;21.30;75.50
4107;DHT22;21906;50.812;7.132;2023-07-29T08:24:05;21.40;74.50
4107;DHT22;21906;50.812;7.132;2023-07-29T08:26:32;21.30;74.60
4107;DHT22;21906;50.812;7.132;2023-07-29T08:28:58;21.20;74.80
4107;DHT22;21906;50.812;7.132;2023-07-29T08:31:24;21.30;74.80
4107;DHT22;21906;50.812;7.132;2023-07-29T08:33:50;21.40;73.70
4107;DHT22;21906;50.812;7.132;2023-07-29T08:36:16;21.60;73.70
4107;DHT22;21906;50.812;7.132;2023-07-29T08:38:41;21.60;72.90
4107;DHT22;21906;50.812;7.132;2023-07-29T08:41:25;21.50;74.00
4107;DHT22;21906;50.812;7.132;2023-07-29T08:46:22;21.70;73.30
4107;DHT22;21906;50.812;7.132;2023-07-29T08:48:48;21.80;73.00
4107;DHT22;21906;50.812;7.132;2023-07-29T08:51:15;21.90;72.00
4107;DHT22;21906;50.812;7.132;2023-07-29T08:53:42;21.80;71.60
4107;DHT22;21906;50.812;7.132;2023-07-29T08:56:08;21.80;70.70
4107;DHT22;21906;50.812;7.132;2023-07-29T08:58:35;21.60;73.10
4107;DHT22;21906;50.812;7.132;2023-07-29T09:01:01;21.60;72.60
4107;DHT22;21906;50.812;7.132;2023-07-29T09:03:27;21.50;72.40
4107;DHT22;21906;50.812;7.132;2023-07-29T09:05:53;21.50;73.40
4107;DHT22;21906;50.812;7.132;2023-07-29T09:08:20;21.50;74.40
4107;DHT22;21906;50.812;7.132;2023-07-29T09:10:46;21.40;72.30
4107;DHT22;21906;50.812;7.132;2023-07-29T09:13:12;21.40;73.00
4107;DHT22;21906;50.812;7.132;2023-07-29T09:15:39;21.40;72.90
4107;DHT22;21906;50.812;7.132;2023-07-29T09:18:20;21.30;71.80
4107;DHT22;21906;50.812;7.132;2023-07-29T09:20:47;21.30;72.30
4107;DHT22;21906;50.812;7.132;2023-07-29T09:23:13;21.30;71.20
4107;DHT22;21906;50.812;7.132;2023-07-29T09:25:40;21.30;71.00
4107;DHT22;21906;50.812;7.132;2023-07-29T09:28:13;21.40;70.80
4107;DHT22;21906;50.812;7.132;2023-07-29T09:30:40;21.40;71.70
4107;DHT22;21906;50.812;7.132;2023-07-29T09:33:07;21.40;71.20
4107;DHT22;21906;50.812;7.132;2023-07-29T09:35:34;21.50;71.60
4107;DHT22;21906;50.812;7.132;2023-07-29T09:38:00;21.50;70.60
4107;DHT22;21906;50.812;7.132;2023-07-29T09:40:26;21.60;70.80
4107;DHT22;21906;50.812;7.132;2023-07-29T09:42:54;21.60;70.20
4107;DHT22;21906;50.812;7.132;2023-07-29T09:45:24;21.70;69.70
4107;DHT22;21906;50.812;7.132;2023-07-29T09:47:51;21.50;68.70
4107;DHT22;21906;50.812;7.132;2023-07-29T09:50:17;21.60;67.90
4107;DHT22;21906;50.812;7.132;2023-07-29T09:52:43;21.60;68.90
4107;DHT22;21906;50.812;7.132;2023-07-29T09:55:13;21.60;68.70
4107;DHT22;21906;50.812;7.132;2023-07-29T09:57:40;21.50;68.20
4107;DHT22;21906;50.812;7.132;2023-07-29T10:00:06;21.50;68.10
4107;DHT22;21906;50.812;7.132;2023-07-29T10:02:40;21.50;67.70
4107;DHT22;21906;50.812;7.132;2023-07-29T10:05:07;21.50;67.70
4107;DHT22;21906;50.812;7.132;2023-07-29T10:07:37;21.60;68.10
4107;DHT22;21906;50.812;7.132;2023-07-29T10:10:07;21.60;68.50
4107;DHT22;21906;50.812;7.132;2023-07-29T10:12:34;21.60;68.00
4107;DHT22;21906;50.812;7.132;2023-07-29T10:15:03;21.60;68.00
4107;DHT22;21906;50.812;7.132;2023-07-29T10:17:30;21.60;68.60
4107;DHT22;21906;50.812;7.132;2023-07-29T10:19:56;21.60;68.50
4107;DHT22;21906;50.812;7.132;2023-07-29T10:22:29;21.50;69.40
4107;DHT22;21906;50.812;7.132;2023-07-29T10:25:03;21.60;69.30
4107;DHT22;21906;50.812;7.132;2023-07-29T10:27:35;21.70;68.70
4107;DHT22;21906;50.812;7.132;2023-07-29T10:30:04;21.80;68.70
4107;DHT22;21906;50.812;7.132;2023-07-29T10:32:31;21.80;68.00
4107;DHT22;21906;50.812;7.132;2023-07-29T10:34:57;21.70;68.00
4107;DHT22;21906;50.812;7.132;2023-07-29T10:37:24;21.80;67.60
4107;DHT22;21906;50.812;7.132;2023-07-29T10:39:54;21.70;69.30
4107;DHT22;21906;50.812;7.132;2023-07-29T10:42:20;21.80;70.80
4107;DHT22;21906;50.812;7.132;2023-07-29T10:47:16;21.80;72.30
4107;DHT22;21906;50.812;7.132;2023-07-29T10:49:43;21.80;71.80
4107;DHT22;21906;50.812;7.132;2023-07-29T10:52:12;21.80;70.90
4107;DHT22;21906;50.812;7.132;2023-07-29T10:54:46;21.80;71.80
4107;DHT22;21906;50.812;7.132;2023-07-29T10:57:15;21.70;72.30
4107;DHT22;21906;50.812;7.132;2023-07-29T10:59:54;21.60;73.20
4107;DHT22;21906;50.812;7.132;2023-07-29T11:02:21;21.60;73.90
4107;DHT22;21906;50.812;7.132;2023-07-29T11:04:53;21.60;75.00
4107;DHT22;21906;50.812;7.132;2023-07-29T11:07:20;21.70;75.10
4107;DHT22;21906;50.812;7.132;2023-07-29T11:12:36;21.90;75.70
4107;DHT22;21906;50.812;7.132;2023-07-29T11:18:09;22.10;75.20
4107;DHT22;21906;50.812;7.132;2023-07-29T11:20:37;22.20;75.10
4107;DHT22;21906;50.812;7.132;2023-07-29T11:23:03;22.20;74.60
4107;DHT22;21906;50.812;7.132;2023-07-29T11:25:30;22.20;74.60
4107;DHT22;21906;50.812;7.132;2023-07-29T11:27:58;22.30;74.00
4107;DHT22;21906;50.812;7.132;2023-07-29T11:30:24;22.30;73.30
4107;DHT22;21906;50.812;7.132;2023-07-29T11:32:53;22.30;73.00
4107;DHT22;21906;50.812;7.132;2023-07-29T11:35:19;22.30;73.50
4107;DHT22;21906;50.812;7.132;2023-07-29T11:37:49;22.40;74.00
4107;DHT22;21906;50.812;7.132;2023-07-29T11:40:22;22.50;74.00
4107;DHT22;21906;50.812;7.132;2023-07-29T11:42:50;22.60;72.50
4107;DHT22;21906;50.812;7.132;2023-07-29T11:45:16;22.60;73.60
4107;DHT22;21906;50.812;7.132;2023-07-29T11:47:42;22.60;73.60
4107;DHT22;21906;50.812;7.132;2023-07-29T11:50:10;22.70;74.10
4107;DHT22;21906;50.812;7.132;2023-07-29T11:52:37;22.70;74.00
4107;DHT22;21906;50.812;7.132;2023-07-29T11:55:04;22.80;74.20
4107;DHT22;21906;50.812;7.132;2023-07-29T11:57:31;22.90;74.10
4107;DHT22;21906;50.812;7.132;2023-07-29T11:59:59;22.90;72.60
4107;DHT22;21906;50.812;7.132;2023-07-29T12:02:25;22.90;73.30
4107;DHT22;21906;50.812;7.132;2023-07-29T12:04:51;22.90;73.50
4107;DHT22;21906;50.812;7.132;2023-07-29T12:07:18;23.00;74.50
4107;DHT22;21906;50.812;7.132;2023-07-29T12:09:46;23.10;71.80
4107;DHT22;21906;50.812;7.132;2023-07-29T12:12:12;23.10;73.20
4107;DHT22;21906;50.812;7.132;2023-07-29T12:14:37;23.10;73.60
4107;DHT22;21906;50.812;7.132;2023-07-29T12:17:05;23.00;74.20
4107;DHT22;21906;50.812;7.132;2023-07-29T12:19:38;23.10;74.90
4107;DHT22;21906;50.812;7.132;2023-07-29T12:22:05;23.30;74.20
4107;DHT22;21906;50.812;7.132;2023-07-29T12:24:32;23.30;74.40
4107;DHT22;21906;50.812;7.132;2023-07-29T12:26:58;23.30;72.80
4107;DHT22;21906;50.812;7.132;2023-07-29T12:29:24;23.20;72.80
4107;DHT22;21906;50.812;7.132;2023-07-29T12:32:01;23.30;75.20
4107;DHT22;21906;50.812;7.132;2023-07-29T12:34:28;23.60;71.50
4107;DHT22;21906;50.812;7.132;2023-07-29T12:36:56;23.70;72.10
4107;DHT22;21906;50.812;7.132;2023-07-29T12:39:30;24.00;72.30
4107;DHT22;21906;50.812;7.132;2023-07-29T12:41:57;23.90;70.50
4107;DHT22;21906;50.812;7.132;2023-07-29T12:44:24;24.10;70.70
4107;DHT22;21906;50.812;7.132;2023-07-29T12:46:50;24.30;70.10
4107;DHT22;21906;50.812;7.132;2023-07-29T12:49:16;24.40;70.10
4107;DHT22;21906;50.812;7.132;2023-07-29T12:51:42;24.70;70.50
4107;DHT22;21906;50.812;7.132;2023-07-29T12:54:08;24.90;71.20
4107;DHT22;21906;50.812;7.132;2023-07-29T12:56:35;25.20;69.50
4107;DHT22;21906;50.812;7.132;2023-07-29T12:59:01;25.40;67.30
4107;DHT22;21906;50.812;7.132;2023-07-29T13:01:28;25.40;62.90
4107;DHT22;21906;50.812;7.132;2023-07-29T13:03:54;25.20;62.10
4107;DHT22;21906;50.812;7.132;2023-07-29T13:06:20;25.00;63.00
4107;DHT22;21906;50.812;7.132;2023-07-29T13:08:47;24.70;62.50
4107;DHT22;21906;50.812;7.132;2023-07-29T13:11:13;24.50;63.70
4107;DHT22;21906;50.812;7.132;2023-07-29T13:13:39;24.30;64.50
4107;DHT22;21906;50.812;7.132;2023-07-29T13:16:05;24.00;68.20
4107;DHT22;21906;50.812;7.132;2023-07-29T13:18:31;23.90;68.80
4107;DHT22;21906;50.812;7.132;2023-07-29T13:20:57;23.80;69.30
4107;DHT22;21906;50.812;7.132;2023-07-29T13:23:23;23.80;68.60
4107;DHT22;21906;50.812;7.132;2023-07-29T13:25:49;23.60;68.60
4107;DHT22;21906;50.812;7.132;2023-07-29T13:28:16;23.40;71.60
4107;DHT22;21906;50.812;7.132;2023-07-29T13:30:42;23.30;71.60
4107;DHT22;21906;50.812;7.132;2023-07-29T13:33:08;23.20;72.10
4107;DHT22;21906;50.812;7.132;2023-07-29T13:35:34;23.00;74.00
4107;DHT22;21906;50.812;7.132;2023-07-29T13:38:01;22.90;74.60
4107;DHT22;21906;50.812;7.132;2023-07-29T13:40:26;22.70;72.10
4107;DHT22;21906;50.812;7.132;2023-07-29T13:42:53;22.60;73.30
4107;DHT22;21906;50.812;7.132;2023-07-29T13:45:19;22.60;74.20
4107;DHT22;21906;50.812;7.132;2023-07-29T13:47:44;22.60;75.00
4107;DHT22;21906;50.812;7.132;2023-07-29T13:50:10;22.60;75.90
4107;DHT22;21906;50.812;7.132;2023-07-29T13:52:38;22.50;76.50
4107;DHT22;21906;50.812;7.132;2023-07-29T13:55:05;22.50;76.90
4107;DHT22;21906;50.812;7.132;2023-07-29T13:57:34;22.40;76.30
4107;DHT22;21906;50.812;7.132;2023-07-29T14:00:00;22.30;75.90
4107;DHT22;21906;50.812;7.132;2023-07-29T14:02:25;22.30;76.00
4107;DHT22;21906;50.812;7.132;2023-07-29T14:04:56;22.30;76.50
4107;DHT22;21906;50.812;7.132;2023-07-29T14:07:22;22.20;77.50
4107;DHT22;21906;50.812;7.132;2023-07-29T14:09:48;22.10;77.50
4107;DHT22;21906;50.812;7.132;2023-07-29T14:12:14;22.10;77.70
4107;DHT22;21906;50.812;7.132;2023-07-29T14:14:41;22.10;77.70
4107;DHT22;21906;50.812;7.132;2023-07-29T14:17:07;22.10;78.30
4107;DHT22;21906;50.812;7.132;2023-07-29T14:19:34;22.10;79.00
4107;DHT22;21906;50.812;7.132;2023-07-29T14:22:00;21.90;79.10
4107;DHT22;21906;50.812;7.132;2023-07-29T14:24:26;21.80;80.20
4107;DHT22;21906;50.812;7.132;2023-07-29T14:26:52;21.80;79.70
4107;DHT22;21906;50.812;7.132;2023-07-29T14:29:17;21.80;79.00
4107;DHT22;21906;50.812;7.132;2023-07-29T14:31:43;21.80;79.10
4107;DHT22;21906;50.812;7.132;2023-07-29T14:34:09;21.80;78.30
4107;DHT22;21906;50.812;7.132;2023-07-29T14:36:36;21.80;78.30
4107;DHT22;21906;50.812;7.132;2023-07-29T14:39:01;21.80;78.20
4107;DHT22;21906;50.812;7.132;2023-07-29T14:41:27;21.80;78.20
4107;DHT22;21906;50.812;7.132;2023-07-29T14:43:53;21.70;77.90
4107;DHT22;21906;50.812;7.132;2023-07-29T14:46:19;21.70;77.50
4107;DHT22;21906;50.812;7.132;2023-07-29T14:48:44;21.80;77.80
4107;DHT22;21906;50.812;7.132;2023-07-29T14:51:12;21.80;77.40
4107;DHT22;21906;50.812;7.132;2023-07-29T14:53:39;21.90;77.90
4107;DHT22;21906;50.812;7.132;2023-07-29T14:56:05;21.80;78.30
4107;DHT22;21906;50.812;7.132;2023-07-29T14:58:31;21.80;78.30
4107;DHT22;21906;50.812;7.132;2023-07-29T15:00:57;21.80;78.30
4107;DHT22;21906;50.812;7.132;2023-07-29T15:03:24;21.80;78.40
4107;DHT22;21906;50.812;7.132;2023-07-29T15:05:50;21.90;79.90
4107;DHT22;21906;50.812;7.132;2023-07-29T15:08:15;21.70;80.70
4107;DHT22;21906;50.812;7.132;2023-07-29T15:10:45;21.80;80.60
4107;DHT22;21906;50.812;7.132;2023-07-29T15:13:12;21.90;79.90
4107;DHT22;21906;50.812;7.132;2023-07-29T15:15:41;22.00;80.30
4107;DHT22;21906;50.812;7.132;2023-07-29T15:18:07;22.10;79.50
4107;DHT22;21906;50.812;7.132;2023-07-29T15:20:33;22.10;77.60
4107;DHT22;21906;50.812;7.132;2023-07-29T15:22:59;22.20;77.90
4107;DHT22;21906;50.812;7.132;2023-07-29T15:25:25;22.30;77.30
4107;DHT22;21906;50.812;7.132;2023-07-29T15:27:50;22.40;77.40
4107;DHT22;21906;50.812;7.132;2023-07-29T15:30:16;22.50;77.10
4107;DHT22;21906;50.812;7.132;2023-07-29T15:32:42;22.60;76.30
4107;DHT22;21906;50.812;7.132;2023-07-29T15:35:08;22.70;75.90
4107;DHT22;21906;50.812;7.132;2023-07-29T15:37:34;22.80;76.40
4107;DHT22;21906;50.812;7.132;2023-07-29T15:40:00;22.90;76.40
4107;DHT22;21906;50.812;7.132;2023-07-29T15:42:25;22.90;75.50
4107;DHT22;21906;50.812;7.132;2023-07-29T15:44:51;23.10;76.10
4107;DHT22;21906;50.812;7.132;2023-07-29T15:47:17;23.20;76.40
4107;DHT22;21906;50.812;7.132;2023-07-29T15:49:44;23.20;76.30
4107;DHT22;21906;50.812;7.132;2023-07-29T15:52:10;23.10;75.60
4107;DHT22;21906;50.812;7.132;2023-07-29T15:54:39;23.00;75.50
4107;DHT22;21906;50.812;7.132;2023-07-29T15:57:05;22.90;75.00
4107;DHT22;21906;50.812;7.132;2023-07-29T15:59:31;22.90;74.80